Terminal Aerodrome Forecast
Issued by NWS

Current Version | Previous Version | Text Only | Print | Product List | Glossary On
Versions: 1 2 3 4 5 6 7 8 9 10 11 12 13
000
FTUS46 KPDT 260522
TAFDLS
TAF
KDLS 260522Z 2606/2706 31008KT P6SM SCT120 BKN200
     FM260900 VRB03KT P6SM FEW100 SCT250
     FM262000 VRB06KT P6SM SKC=

USA.gov is the U.S. government's official web portal to all federal, state and local government web resources and services.